Time;durP1;ratioP1;P1;durP2;ratioP2;P2;SDS_P1;SDS_P2;PMS_P1;PMS_P2;Temp;Humidity;BMP_temperature;BMP_pressure;BME280_temperature;BME280_humidity;BME280_pressure;Samples;Min_cycle;Max_cycle;Signal;HPM_P1;HPM_P2
2020/04/17 00:01:28;;;;;;;3.42;3.12;;;;;;;19.33;35.39;100443.81;;;;-62
2020/04/17 00:04:28;;;;;;;3.33;3.03;;;;;;;19.33;35.41;100445.20;;;;-62
2020/04/17 00:07:28;;;;;;;3.01;2.76;;;;;;;19.31;35.40;100444.05;;;;-62
2020/04/17 00:10:28;;;;;;;3.32;2.99;;;;;;;19.32;35.42;100444.23;;;;-63
2020/04/17 00:13:28;;;;;;;3.34;3.04;;;;;;;19.31;35.41;100440.87;;;;-63
2020/04/17 00:16:28;;;;;;;4.26;2.97;;;;;;;19.31;35.41;100442.61;;;;-63
2020/04/17 00:19:28;;;;;;;3.35;3.05;;;;;;;19.30;35.40;100443.06;;;;-62
2020/04/17 00:22:28;;;;;;;3.39;3.09;;;;;;;19.29;35.44;100445.88;;;;-61
2020/04/17 00:25:28;;;;;;;3.25;2.95;;;;;;;19.29;35.43;100449.72;;;;-63
2020/04/17 00:28:28;;;;;;;3.29;2.99;;;;;;;19.29;35.43;100451.73;;;;-62
2020/04/17 00:31:28;;;;;;;3.09;2.83;;;;;;;19.27;35.43;100450.73;;;;-62
2020/04/17 00:34:27;;;;;;;3.31;2.96;;;;;;;19.27;35.45;100443.03;;;;-63
2020/04/17 00:37:28;;;;;;;2.93;2.73;;;;;;;19.27;35.44;100438.58;;;;-63
2020/04/17 00:40:28;;;;;;;3.19;2.89;;;;;;;19.26;35.44;100439.81;;;;-62
2020/04/17 00:43:28;;;;;;;3.33;3.03;;;;;;;19.25;35.43;100440.67;;;;-62
2020/04/17 00:46:28;;;;;;;3.39;3.11;;;;;;;19.25;35.46;100443.18;;;;-63
2020/04/17 00:49:28;;;;;;;3.34;3.03;;;;;;;19.24;35.46;100439.95;;;;-62
2020/04/17 00:52:28;;;;;;;3.33;3.03;;;;;;;19.24;35.50;100441.72;;;;-59
2020/04/17 00:55:28;;;;;;;2.99;2.77;;;;;;;19.23;35.43;100436.33;;;;-62
2020/04/17 00:58:28;;;;;;;3.08;2.85;;;;;;;19.23;35.47;100432.03;;;;-62
2020/04/17 01:01:28;;;;;;;3.23;2.93;;;;;;;19.23;35.48;100434.55;;;;-62
2020/04/17 01:04:28;;;;;;;3.09;2.87;;;;;;;19.22;35.46;100434.44;;;;-62
2020/04/17 01:07:28;;;;;;;3.11;2.91;;;;;;;19.22;35.50;100425.39;;;;-63
2020/04/17 01:10:28;;;;;;;2.93;2.73;;;;;;;19.21;35.49;100422.84;;;;-63
2020/04/17 01:13:37;;;;;;;3.13;2.83;;;;;;;19.21;35.47;100421.91;;;;-63
2020/04/17 01:16:28;;;;;;;3.17;2.87;;;;;;;19.20;35.49;100422.12;;;;-62
2020/04/17 01:19:27;;;;;;;3.13;2.81;;;;;;;19.19;35.51;100422.25;;;;-62
2020/04/17 01:22:28;;;;;;;3.17;2.87;;;;;;;19.19;35.50;100425.20;;;;-63
2020/04/17 01:25:28;;;;;;;3.02;2.81;;;;;;;19.18;35.49;100418.75;;;;-63
2020/04/17 01:28:28;;;;;;;3.21;2.95;;;;;;;19.18;35.51;100413.22;;;;-63
2020/04/17 01:31:28;;;;;;;3.41;3.11;;;;;;;19.18;35.50;100414.96;;;;-62
2020/04/17 01:34:28;;;;;;;3.28;3.01;;;;;;;19.18;35.52;100415.13;;;;-62
2020/04/17 01:37:28;;;;;;;2.92;2.71;;;;;;;19.17;35.50;100415.19;;;;-62
2020/04/17 01:40:27;;;;;;;3.06;2.85;;;;;;;19.17;35.52;100416.26;;;;-63
2020/04/17 01:43:28;;;;;;;3.29;2.99;;;;;;;19.15;35.54;100415.14;;;;-61
2020/04/17 01:46:28;;;;;;;3.24;2.94;;;;;;;19.16;35.54;100419.66;;;;-62
2020/04/17 01:49:28;;;;;;;3.25;2.96;;;;;;;19.15;35.52;100418.95;;;;-62
2020/04/17 01:52:28;;;;;;;3.38;3.08;;;;;;;19.15;35.53;100421.36;;;;-62
2020/04/17 01:55:28;;;;;;;2.95;2.75;;;;;;;19.14;35.52;100419.34;;;;-62
2020/04/17 01:58:28;;;;;;;3.15;2.90;;;;;;;19.13;35.59;100417.73;;;;-63
2020/04/17 02:01:27;;;;;;;2.94;2.73;;;;;;;19.13;35.56;100417.66;;;;-62
2020/04/17 02:04:28;;;;;;;3.87;3.16;;;;;;;19.12;35.58;100416.70;;;;-64
2020/04/17 02:07:28;;;;;;;3.31;3.01;;;;;;;19.12;35.58;100417.55;;;;-63
2020/04/17 02:10:28;;;;;;;3.09;2.79;;;;;;;19.11;35.56;100424.26;;;;-62
2020/04/17 02:13:28;;;;;;;2.97;2.77;;;;;;;19.12;35.56;100424.40;;;;-63
2020/04/17 02:16:28;;;;;;;3.09;2.83;;;;;;;19.11;35.56;100422.19;;;;-60
2020/04/17 02:19:28;;;;;;;3.37;3.07;;;;;;;19.11;35.58;100422.02;;;;-62
2020/04/17 02:22:28;;;;;;;3.37;3.07;;;;;;;19.10;35.57;100422.04;;;;-63
2020/04/17 02:25:28;;;;;;;3.11;2.89;;;;;;;19.09;35.62;100422.77;;;;-62
2020/04/17 02:28:28;;;;;;;3.13;2.89;;;;;;;19.09;35.61;100422.77;;;;-63
2020/04/17 02:31:28;;;;;;;3.37;3.09;;;;;;;19.08;35.62;100424.06;;;;-62
2020/04/17 02:34:28;;;;;;;3.23;2.93;;;;;;;19.08;35.62;100427.01;;;;-63
2020/04/17 02:37:28;;;;;;;3.26;2.96;;;;;;;19.07;35.63;100427.13;;;;-62
2020/04/17 02:40:28;;;;;;;3.18;2.91;;;;;;;19.07;35.61;100435.39;;;;-63
2020/04/17 02:43:28;;;;;;;3.21;2.95;;;;;;;19.06;35.61;100439.47;;;;-63
2020/04/17 02:46:28;;;;;;;2.94;2.74;;;;;;;19.06;35.62;100439.64;;;;-62
2020/04/17 02:49:27;;;;;;;3.06;2.85;;;;;;;19.05;35.62;100438.25;;;;-62
2020/04/17 02:52:27;;;;;;;3.20;2.90;;;;;;;19.05;35.60;100440.33;;;;-63
2020/04/17 02:55:28;;;;;;;3.01;2.81;;;;;;;19.05;35.65;100439.98;;;;-63
2020/04/17 02:58:28;;;;;;;3.43;3.13;;;;;;;19.04;35.63;100447.08;;;;-63
2020/04/17 03:01:28;;;;;;;2.91;2.71;;;;;;;19.04;35.65;100450.05;;;;-63
2020/04/17 03:04:27;;;;;;;3.39;3.09;;;;;;;19.04;35.67;100452.32;;;;-63
2020/04/17 03:07:28;;;;;;;3.23;2.97;;;;;;;19.03;35.67;100450.94;;;;-62
2020/04/17 03:10:28;;;;;;;3.67;3.05;;;;;;;19.03;35.69;100454.80;;;;-62
2020/04/17 03:13:28;;;;;;;3.35;3.05;;;;;;;19.02;35.70;100456.35;;;;-56
2020/04/17 03:16:28;;;;;;;3.39;3.09;;;;;;;19.02;35.68;100453.91;;;;-56
2020/04/17 03:19:28;;;;;;;3.01;2.81;;;;;;;19.02;35.68;100447.88;;;;-56
2020/04/17 03:22:28;;;;;;;3.13;2.83;;;;;;;19.01;35.69;100450.28;;;;-57
2020/04/17 03:25:28;;;;;;;3.19;2.94;;;;;;;19.00;35.68;100453.08;;;;-56
2020/04/17 03:28:28;;;;;;;3.29;2.95;;;;;;;19.00;35.73;100450.74;;;;-57
2020/04/17 03:31:27;;;;;;;3.35;3.05;;;;;;;18.99;35.69;100449.58;;;;-56
2020/04/17 03:34:27;;;;;;;3.39;3.09;;;;;;;18.99;35.71;100451.59;;;;-56
2020/04/17 03:37:27;;;;;;;3.11;2.82;;;;;;;18.99;35.71;100452.70;;;;-56
2020/04/17 03:40:28;;;;;;;3.36;3.06;;;;;;;18.99;35.69;100455.38;;;;-56
2020/04/17 03:43:28;;;;;;;3.00;2.80;;;;;;;18.99;35.66;100460.30;;;;-57
2020/04/17 03:46:28;;;;;;;3.20;2.90;;;;;;;19.00;35.66;100461.95;;;;-62
2020/04/17 03:49:28;;;;;;;3.39;2.99;;;;;;;19.02;35.66;100460.53;;;;-62
2020/04/17 03:52:27;;;;;;;3.25;2.95;;;;;;;19.02;35.62;100458.20;;;;-62
2020/04/17 03:55:28;;;;;;;3.05;2.85;;;;;;;19.05;35.62;100456.55;;;;-62
2020/04/17 03:58:28;;;;;;;3.15;2.89;;;;;;;19.07;35.62;100461.67;;;;-61
2020/04/17 04:01:27;;;;;;;3.35;3.05;;;;;;;19.10;35.59;100458.70;;;;-62
2020/04/17 04:04:28;;;;;;;3.22;2.92;;;;;;;19.13;35.67;100458.30;;;;-61
2020/04/17 04:07:28;;;;;;;3.38;2.91;;;;;;;19.16;35.65;100455.98;;;;-62
2020/04/17 04:10:28;;;;;;;3.05;2.73;;;;;;;19.18;35.71;100456.86;;;;-61
2020/04/17 04:13:28;;;;;;;3.23;2.93;;;;;;;19.22;35.71;100461.72;;;;-61
2020/04/17 04:16:27;;;;;;;3.20;2.90;;;;;;;19.25;35.74;100461.94;;;;-63
2020/04/17 04:19:27;;;;;;;3.25;3.00;;;;;;;19.28;35.75;100463.58;;;;-63
2020/04/17 04:22:27;;;;;;;3.08;2.87;;;;;;;19.32;35.81;100461.91;;;;-62
2020/04/17 04:25:27;;;;;;;2.93;2.73;;;;;;;19.34;35.88;100461.27;;;;-63
2020/04/17 04:28:28;;;;;;;3.15;2.90;;;;;;;19.37;35.81;100467.13;;;;-62
2020/04/17 04:31:28;;;;;;;3.19;2.89;;;;;;;19.39;35.90;100467.25;;;;-62
2020/04/17 04:34:27;;;;;;;3.20;2.90;;;;;;;19.40;35.86;100467.70;;;;-63
2020/04/17 04:37:27;;;;;;;3.02;2.82;;;;;;;19.43;35.81;100464.41;;;;-63
2020/04/17 04:40:28;;;;;;;3.20;2.90;;;;;;;19.44;35.85;100461.85;;;;-62
2020/04/17 04:43:28;;;;;;;3.14;2.89;;;;;;;19.47;35.83;100466.23;;;;-63
2020/04/17 04:46:28;;;;;;;3.07;2.82;;;;;;;19.49;35.86;100467.36;;;;-63
2020/04/17 04:49:27;;;;;;;3.27;3.00;;;;;;;19.49;35.82;100466.42;;;;-62
2020/04/17 04:52:28;;;;;;;3.39;3.09;;;;;;;19.50;35.89;100466.07;;;;-64
2020/04/17 04:55:28;;;;;;;2.76;2.56;;;;;;;19.52;35.79;100466.46;;;;-63
2020/04/17 04:58:27;;;;;;;3.35;3.04;;;;;;;19.52;35.83;100462.38;;;;-62
2020/04/17 05:01:27;;;;;;;3.28;2.99;;;;;;;19.53;35.83;100460.58;;;;-62
2020/04/17 05:04:27;;;;;;;3.07;2.83;;;;;;;19.55;35.82;100463.84;;;;-62
2020/04/17 05:07:27;;;;;;;3.17;2.89;;;;;;;19.55;35.74;100469.03;;;;-63
2020/04/17 05:10:28;;;;;;;3.27;2.97;;;;;;;19.56;35.76;100472.93;;;;-63
2020/04/17 05:13:28;;;;;;;3.26;2.99;;;;;;;19.56;35.76;100475.84;;;;-62
2020/04/17 05:16:28;;;;;;;3.33;3.03;;;;;;;19.57;35.75;100473.81;;;;-62
2020/04/17 05:19:27;;;;;;;3.39;3.09;;;;;;;19.57;35.77;100471.30;;;;-63
2020/04/17 05:22:28;;;;;;;3.44;3.14;;;;;;;19.57;35.69;100470.47;;;;-62
2020/04/17 05:25:27;;;;;;;3.14;2.86;;;;;;;19.57;35.70;100475.89;;;;-63
2020/04/17 05:28:28;;;;;;;3.25;2.95;;;;;;;19.58;35.72;100480.80;;;;-63
2020/04/17 05:31:28;;;;;;;3.20;2.90;;;;;;;19.59;35.72;100486.47;;;;-62
2020/04/17 05:34:28;;;;;;;3.33;3.03;;;;;;;19.58;35.71;100485.09;;;;-62
2020/04/17 05:37:28;;;;;;;3.41;3.11;;;;;;;19.59;35.70;100490.55;;;;-61
2020/04/17 05:40:28;;;;;;;3.41;3.11;;;;;;;19.58;35.68;100490.11;;;;-62
2020/04/17 05:43:27;;;;;;;3.35;3.05;;;;;;;19.59;35.71;100496.25;;;;-63
2020/04/17 05:46:27;;;;;;;3.39;3.00;;;;;;;19.59;35.70;100491.05;;;;-63
2020/04/17 05:49:37;;;;;;;3.31;3.01;;;;;;;19.59;35.69;100493.67;;;;-62
2020/04/17 05:52:33;;;;;;;3.21;2.91;;;;;;;19.59;35.66;100500.95;;;;-63
2020/04/17 05:55:30;;;;;;;3.32;3.02;;;;;;;19.60;35.66;100507.52;;;;-61
2020/04/17 05:58:28;;;;;;;3.09;2.89;;;;;;;19.60;35.66;100511.03;;;;-62
2020/04/17 06:01:28;;;;;;;3.41;3.11;;;;;;;19.60;35.66;100511.44;;;;-63
2020/04/17 06:04:27;;;;;;;3.36;3.06;;;;;;;19.59;35.66;100510.59;;;;-61
2020/04/17 06:07:28;;;;;;;3.37;3.07;;;;;;;19.59;35.65;100509.42;;;;-62
2020/04/17 06:10:28;;;;;;;3.40;3.09;;;;;;;19.59;35.61;100509.31;;;;-61
2020/04/17 06:13:28;;;;;;;3.60;3.30;;;;;;;19.59;35.65;100508.58;;;;-62
2020/04/17 06:16:28;;;;;;;3.19;2.92;;;;;;;19.59;35.64;100504.56;;;;-62
2020/04/17 06:19:28;;;;;;;3.47;3.17;;;;;;;19.58;35.59;100507.20;;;;-63
2020/04/17 06:22:28;;;;;;;3.41;3.04;;;;;;;19.58;35.60;100509.44;;;;-62
2020/04/17 06:25:27;;;;;;;3.43;3.15;;;;;;;19.58;35.64;100511.63;;;;-63
2020/04/17 06:28:27;;;;;;;3.76;3.40;;;;;;;19.58;35.61;100511.78;;;;-63
2020/04/17 06:31:27;;;;;;;3.26;2.96;;;;;;;19.58;35.60;100513.23;;;;-62
2020/04/17 06:34:27;;;;;;;3.41;3.11;;;;;;;19.58;35.63;100513.89;;;;-62
2020/04/17 06:37:28;;;;;;;3.34;3.04;;;;;;;19.58;35.59;100514.80;;;;-62
2020/04/17 06:40:28;;;;;;;3.46;3.16;;;;;;;19.58;35.62;100515.91;;;;-63
2020/04/17 06:43:28;;;;;;;3.48;3.11;;;;;;;19.58;35.56;100521.16;;;;-62
2020/04/17 06:46:28;;;;;;;3.25;2.96;;;;;;;19.58;35.59;100518.25;;;;-62
2020/04/17 06:49:27;;;;;;;3.37;3.07;;;;;;;19.59;35.58;100518.63;;;;-63
2020/04/17 06:52:27;;;;;;;3.40;3.10;;;;;;;19.59;35.59;100521.05;;;;-62
2020/04/17 06:55:28;;;;;;;3.55;3.25;;;;;;;19.60;35.60;100522.83;;;;-62
2020/04/17 06:58:27;;;;;;;3.31;3.01;;;;;;;19.60;35.59;100517.23;;;;-63
2020/04/17 07:01:28;;;;;;;3.17;2.93;;;;;;;19.60;35.58;100513.22;;;;-62
2020/04/17 07:04:28;;;;;;;4.29;3.01;;;;;;;19.60;35.55;100512.81;;;;-63
2020/04/17 07:07:28;;;;;;;3.49;3.17;;;;;;;19.61;35.55;100513.66;;;;-62
2020/04/17 07:10:27;;;;;;;3.13;2.83;;;;;;;19.61;35.55;100509.47;;;;-62
2020/04/17 07:13:27;;;;;;;3.45;3.09;;;;;;;19.60;35.55;100505.95;;;;-62
2020/04/17 07:16:27;;;;;;;3.96;3.21;;;;;;;19.62;35.58;100506.77;;;;-62
2020/04/17 07:19:27;;;;;;;3.42;3.11;;;;;;;19.62;35.55;100503.92;;;;-62
2020/04/17 07:22:27;;;;;;;3.42;3.12;;;;;;;19.63;35.53;100503.62;;;;-62
2020/04/17 07:25:27;;;;;;;3.43;3.13;;;;;;;19.63;35.53;100506.21;;;;-62
2020/04/17 07:28:28;;;;;;;3.49;3.19;;;;;;;19.63;35.57;100498.94;;;;-62
2020/04/17 07:31:27;;;;;;;3.67;3.13;;;;;;;19.64;35.54;100495.87;;;;-62
2020/04/17 07:34:27;;;;;;;3.54;3.24;;;;;;;19.64;35.52;100497.05;;;;-62
2020/04/17 07:37:28;;;;;;;3.63;3.29;;;;;;;19.64;35.55;100492.72;;;;-62
2020/04/17 07:40:27;;;;;;;5.34;3.22;;;;;;;19.65;35.55;100486.80;;;;-62
2020/04/17 07:43:28;;;;;;;3.39;3.09;;;;;;;19.65;35.58;100490.22;;;;-61
2020/04/17 07:46:28;;;;;;;3.39;3.09;;;;;;;19.66;35.56;100488.52;;;;-62
2020/04/17 07:49:28;;;;;;;3.45;3.15;;;;;;;19.66;35.55;100492.55;;;;-62
2020/04/17 07:52:27;;;;;;;3.49;3.09;;;;;;;19.66;35.53;100488.13;;;;-62
2020/04/17 07:55:27;;;;;;;3.27;2.99;;;;;;;19.67;35.56;100483.60;;;;-62
2020/04/17 07:58:27;;;;;;;3.05;2.79;;;;;;;19.67;35.59;100478.08;;;;-63
2020/04/17 08:01:27;;;;;;;3.29;2.99;;;;;;;19.68;35.55;100478.79;;;;-63
2020/04/17 08:04:27;;;;;;;3.41;3.11;;;;;;;19.67;35.55;100477.95;;;;-63
2020/04/17 08:07:28;;;;;;;3.83;3.12;;;;;;;19.68;35.53;100478.95;;;;-62
2020/04/17 08:10:28;;;;;;;3.40;3.10;;;;;;;19.69;35.56;100482.75;;;;-62
2020/04/17 08:13:27;;;;;;;3.78;3.05;;;;;;;19.68;35.59;100479.50;;;;-62
2020/04/17 08:16:27;;;;;;;3.42;3.12;;;;;;;19.69;35.54;100485.77;;;;-62
2020/04/17 08:19:27;;;;;;;3.42;3.12;;;;;;;19.70;35.58;100486.98;;;;-63
2020/04/17 08:22:28;;;;;;;3.59;3.29;;;;;;;19.69;35.57;100484.02;;;;-62
2020/04/17 08:25:28;;;;;;;3.41;3.11;;;;;;;19.69;35.58;100488.15;;;;-62
2020/04/17 08:28:27;;;;;;;3.45;3.15;;;;;;;19.70;35.55;100486.08;;;;-63
2020/04/17 08:31:28;;;;;;;3.33;3.03;;;;;;;19.70;35.53;100486.19;;;;-65
2020/04/17 08:34:28;;;;;;;3.40;3.10;;;;;;;19.70;35.56;100485.91;;;;-64
2020/04/17 08:37:28;;;;;;;3.38;3.04;;;;;;;19.70;35.57;100487.69;;;;-65
2020/04/17 08:40:28;;;;;;;3.43;3.13;;;;;;;19.70;35.57;100485.75;;;;-66
2020/04/17 08:43:28;;;;;;;4.59;3.17;;;;;;;19.73;35.94;100487.45;;;;-55
2020/04/17 08:46:28;;;;;;;5.03;3.20;;;;;;;19.73;36.04;100486.15;;;;-57
2020/04/17 08:49:27;;;;;;;4.45;3.17;;;;;;;19.75;36.30;100485.73;;;;-57
2020/04/17 08:52:28;;;;;;;4.25;3.35;;;;;;;19.77;36.26;100489.00;;;;-58
2020/04/17 08:55:27;;;;;;;3.76;3.33;;;;;;;19.78;36.56;100486.54;;;;-60
2020/04/17 08:58:27;;;;;;;4.36;3.08;;;;;;;19.80;36.49;100487.19;;;;-56
2020/04/17 09:01:28;;;;;;;3.91;3.43;;;;;;;19.81;36.57;100485.55;;;;-60
2020/04/17 09:04:28;;;;;;;4.49;3.25;;;;;;;19.82;36.65;100488.22;;;;-56
2020/04/17 09:07:27;;;;;;;3.83;2.97;;;;;;;19.84;36.76;100489.71;;;;-61
2020/04/17 09:10:28;;;;;;;4.12;3.10;;;;;;;19.85;36.53;100479.27;;;;-54
2020/04/17 09:13:28;;;;;;;3.39;3.09;;;;;;;19.86;36.61;100479.68;;;;-58
2020/04/17 09:16:28;;;;;;;3.32;3.02;;;;;;;19.88;36.68;100478.59;;;;-56
2020/04/17 09:19:27;;;;;;;3.32;3.02;;;;;;;19.89;36.51;100476.29;;;;-52
2020/04/17 09:22:28;;;;;;;4.75;2.99;;;;;;;19.91;36.59;100477.11;;;;-57
2020/04/17 09:25:27;;;;;;;3.75;3.08;;;;;;;19.92;36.60;100480.27;;;;-54
2020/04/17 09:28:28;;;;;;;4.21;3.19;;;;;;;19.93;36.73;100474.41;;;;-55
2020/04/17 09:31:27;;;;;;;4.73;3.13;;;;;;;19.95;37.08;100475.38;;;;-58
2020/04/17 09:34:27;;;;;;;3.32;3.02;;;;;;;19.96;36.77;100472.93;;;;-56
2020/04/17 09:37:27;;;;;;;4.02;2.93;;;;;;;19.97;36.72;100473.62;;;;-56
2020/04/17 09:40:27;;;;;;;3.95;3.08;;;;;;;19.98;36.60;100471.78;;;;-57
2020/04/17 09:43:27;;;;;;;3.19;2.89;;;;;;;19.99;36.93;100474.09;;;;-59
2020/04/17 09:46:27;;;;;;;3.52;3.16;;;;;;;20.00;36.61;100471.80;;;;-56
2020/04/17 09:49:27;;;;;;;3.46;3.05;;;;;;;20.00;36.82;100465.86;;;;-57
2020/04/17 09:52:28;;;;;;;3.53;2.90;;;;;;;20.02;36.76;100462.33;;;;-56
2020/04/17 09:55:28;;;;;;;3.23;2.93;;;;;;;20.02;36.63;100461.59;;;;-54
2020/04/17 09:58:28;;;;;;;4.08;2.99;;;;;;;20.02;36.41;100457.16;;;;-61
2020/04/17 10:01:27;;;;;;;3.53;3.23;;;;;;;20.03;36.38;100457.61;;;;-60
2020/04/17 10:04:28;;;;;;;3.73;3.20;;;;;;;20.03;36.32;100458.95;;;;-58
2020/04/17 10:07:28;;;;;;;3.58;3.19;;;;;;;20.04;36.34;100451.84;;;;-61
2020/04/17 10:10:27;;;;;;;3.40;3.10;;;;;;;20.04;36.35;100451.62;;;;-55
2020/04/17 10:13:27;;;;;;;5.15;3.41;;;;;;;20.07;36.63;100453.25;;;;-56
2020/04/17 10:16:27;;;;;;;4.81;3.29;;;;;;;20.06;36.36;100450.08;;;;-58
2020/04/17 10:19:28;;;;;;;3.29;2.99;;;;;;;20.05;36.32;100445.95;;;;-56
2020/04/17 10:22:28;;;;;;;4.35;3.39;;;;;;;20.05;36.26;100443.00;;;;-56
2020/04/17 10:25:27;;;;;;;3.49;3.13;;;;;;;20.04;36.20;100442.39;;;;-57
2020/04/17 10:28:27;;;;;;;3.76;3.10;;;;;;;20.03;36.20;100444.36;;;;-57
2020/04/17 10:31:27;;;;;;;3.91;2.89;;;;;;;20.03;36.24;100442.19;;;;-56
2020/04/17 10:34:28;;;;;;;3.89;3.19;;;;;;;20.02;36.15;100435.27;;;;-58
2020/04/17 10:37:27;;;;;;;4.82;3.06;;;;;;;20.02;36.10;100433.53;;;;-58
2020/04/17 10:40:27;;;;;;;4.01;3.20;;;;;;;20.01;36.13;100430.97;;;;-56
2020/04/17 10:43:27;;;;;;;3.44;3.14;;;;;;;20.01;36.07;100427.08;;;;-58
2020/04/17 10:46:27;;;;;;;3.23;2.93;;;;;;;20.00;36.09;100420.70;;;;-58
2020/04/17 10:49:27;;;;;;;3.50;3.19;;;;;;;19.99;36.07;100413.86;;;;-56
2020/04/17 10:52:27;;;;;;;4.43;3.02;;;;;;;20.00;36.03;100415.47;;;;-53
2020/04/17 10:55:28;;;;;;;5.15;3.11;;;;;;;19.99;36.07;100416.14;;;;-53
2020/04/17 10:58:27;;;;;;;3.45;3.15;;;;;;;19.98;36.06;100414.19;;;;-53
2020/04/17 11:01:27;;;;;;;3.76;3.10;;;;;;;19.98;36.05;100416.36;;;;-53
2020/04/17 11:04:27;;;;;;;5.32;3.29;;;;;;;19.98;35.98;100412.77;;;;-53
2020/04/17 11:07:27;;;;;;;3.31;3.01;;;;;;;19.98;35.97;100408.48;;;;-53
2020/04/17 11:10:27;;;;;;;3.15;2.83;;;;;;;19.98;36.00;100399.93;;;;-53
2020/04/17 11:13:28;;;;;;;3.20;2.92;;;;;;;19.97;35.99;100393.63;;;;-53
2020/04/17 11:16:27;;;;;;;3.30;2.99;;;;;;;19.98;36.01;100392.73;;;;-53
2020/04/17 11:19:27;;;;;;;3.33;3.02;;;;;;;19.96;36.00;100385.91;;;;-51
2020/04/17 11:22:27;;;;;;;3.34;3.04;;;;;;;19.97;36.02;100385.11;;;;-53
2020/04/17 11:25:27;;;;;;;3.57;3.16;;;;;;;19.96;35.96;100380.88;;;;-53
2020/04/17 11:28:27;;;;;;;4.07;3.31;;;;;;;19.97;35.96;100378.53;;;;-53
2020/04/17 11:31:27;;;;;;;5.02;3.61;;;;;;;19.97;35.94;100375.79;;;;-53
2020/04/17 11:34:27;;;;;;;4.32;3.80;;;;;;;19.96;35.90;100373.41;;;;-53
2020/04/17 11:37:27;;;;;;;5.38;3.89;;;;;;;19.96;35.92;100366.83;;;;-53
2020/04/17 11:40:28;;;;;;;5.26;3.97;;;;;;;19.96;35.92;100370.15;;;;-53
2020/04/17 11:43:27;;;;;;;5.29;4.34;;;;;;;19.95;35.88;100362.06;;;;-53
2020/04/17 11:46:27;;;;;;;5.23;4.13;;;;;;;19.95;35.91;100360.28;;;;-53
2020/04/17 11:49:28;;;;;;;4.95;3.97;;;;;;;19.96;35.88;100356.60;;;;-53
2020/04/17 11:52:27;;;;;;;5.53;4.49;;;;;;;19.95;35.88;100354.66;;;;-54
2020/04/17 11:55:27;;;;;;;8.39;4.85;;;;;;;19.95;35.92;100358.57;;;;-53
2020/04/17 11:58:27;;;;;;;7.34;4.91;;;;;;;19.95;35.90;100357.40;;;;-53
2020/04/17 12:01:28;;;;;;;8.53;5.35;;;;;;;19.94;35.85;100356.99;;;;-53
2020/04/17 12:04:27;;;;;;;8.33;5.28;;;;;;;19.95;35.88;100351.97;;;;-61
2020/04/17 12:07:27;;;;;;;7.85;4.60;;;;;;;19.95;36.20;100348.82;;;;-56
2020/04/17 12:10:27;;;;;;;9.71;5.23;;;;;;;19.97;36.54;100348.20;;;;-55
2020/04/17 12:13:28;;;;;;;8.75;4.91;;;;;;;19.98;36.56;100340.25;;;;-52
2020/04/17 12:16:27;;;;;;;11.01;5.81;;;;;;;19.98;36.61;100337.58;;;;-62
2020/04/17 12:19:27;;;;;;;10.47;5.69;;;;;;;20.00;36.57;100335.17;;;;-57
2020/04/17 12:22:27;;;;;;;11.16;5.68;;;;;;;20.01;36.58;100337.39;;;;-56
2020/04/17 12:25:27;;;;;;;9.37;5.52;;;;;;;20.01;36.50;100331.30;;;;-58
2020/04/17 12:28:27;;;;;;;10.83;5.87;;;;;;;20.01;36.56;100328.61;;;;-56
2020/04/17 12:31:27;;;;;;;8.91;5.47;;;;;;;20.01;36.32;100323.59;;;;-56
2020/04/17 12:34:27;;;;;;;10.01;5.57;;;;;;;20.00;36.24;100322.20;;;;-56
2020/04/17 12:37:27;;;;;;;9.43;5.62;;;;;;;20.02;36.67;100319.44;;;;-59
2020/04/17 12:40:27;;;;;;;11.46;6.01;;;;;;;20.04;36.84;100317.44;;;;-57
2020/04/17 12:43:27;;;;;;;12.29;5.93;;;;;;;20.04;36.86;100317.09;;;;-57
2020/04/17 12:46:27;;;;;;;9.83;5.94;;;;;;;20.05;36.90;100318.05;;;;-58
2020/04/17 12:49:28;;;;;;;10.79;6.01;;;;;;;20.07;36.94;100313.70;;;;-56
2020/04/17 12:52:27;;;;;;;14.75;6.70;;;;;;;20.09;36.97;100311.23;;;;-56
2020/04/17 12:55:27;;;;;;;13.39;6.74;;;;;;;20.10;37.10;100309.02;;;;-57
2020/04/17 12:58:27;;;;;;;12.09;6.60;;;;;;;20.10;36.93;100302.81;;;;-57
2020/04/17 13:01:27;;;;;;;14.46;6.88;;;;;;;20.10;37.00;100300.88;;;;-56
2020/04/17 13:04:27;;;;;;;14.27;7.19;;;;;;;20.09;36.87;100299.09;;;;-56
2020/04/17 13:07:28;;;;;;;14.09;6.85;;;;;;;20.11;36.84;100298.40;;;;-57
2020/04/17 13:10:27;;;;;;;12.77;6.80;;;;;;;20.10;36.87;100296.52;;;;-57
2020/04/17 13:13:28;;;;;;;15.15;7.13;;;;;;;20.12;36.75;100297.59;;;;-57
2020/04/17 13:16:27;;;;;;;14.60;6.89;;;;;;;20.12;36.74;100291.39;;;;-59
2020/04/17 13:19:27;;;;;;;10.58;6.27;;;;;;;20.12;36.72;100290.39;;;;-51
2020/04/17 13:22:27;;;;;;;9.43;6.21;;;;;;;20.12;36.81;100283.34;;;;-55
2020/04/17 13:25:27;;;;;;;12.21;6.35;;;;;;;20.12;36.82;100280.43;;;;-54
2020/04/17 13:28:28;;;;;;;10.97;6.38;;;;;;;20.12;36.85;100278.75;;;;-52
2020/04/17 13:31:28;;;;;;;11.18;6.39;;;;;;;20.13;36.91;100271.48;;;;-54
2020/04/17 13:34:27;;;;;;;10.04;6.36;;;;;;;20.11;36.84;100267.05;;;;-54
2020/04/17 13:37:28;;;;;;;10.05;6.27;;;;;;;20.10;36.70;100268.45;;;;-54
2020/04/17 13:40:27;;;;;;;9.73;6.20;;;;;;;20.08;36.64;100261.40;;;;-55
2020/04/17 13:43:27;;;;;;;12.65;6.48;;;;;;;20.08;36.59;100261.33;;;;-53
2020/04/17 13:46:27;;;;;;;10.81;6.51;;;;;;;20.06;36.62;100260.75;;;;-54
2020/04/17 13:49:27;;;;;;;9.65;6.27;;;;;;;20.05;36.54;100257.96;;;;-55
2020/04/17 13:52:27;;;;;;;11.81;5.94;;;;;;;20.05;36.53;100256.19;;;;-54
2020/04/17 13:55:27;;;;;;;10.07;6.37;;;;;;;20.03;36.52;100249.34;;;;-55
2020/04/17 13:58:27;;;;;;;9.38;6.23;;;;;;;20.03;36.47;100246.89;;;;-53
2020/04/17 14:01:27;;;;;;;8.43;5.79;;;;;;;20.02;36.45;100252.72;;;;-53
2020/04/17 14:04:27;;;;;;;9.46;5.83;;;;;;;20.01;36.44;100250.90;;;;-53
2020/04/17 14:07:28;;;;;;;9.97;5.61;;;;;;;20.01;36.39;100246.70;;;;-54
2020/04/17 14:10:27;;;;;;;9.05;5.62;;;;;;;20.01;36.33;100241.51;;;;-54
2020/04/17 14:13:27;;;;;;;9.20;6.01;;;;;;;20.00;36.37;100237.55;;;;-55
2020/04/17 14:16:27;;;;;;;9.61;5.61;;;;;;;20.00;36.35;100231.25;;;;-55
2020/04/17 14:19:28;;;;;;;10.20;5.88;;;;;;;19.98;36.42;100226.01;;;;-53
2020/04/17 14:22:27;;;;;;;9.81;5.89;;;;;;;19.98;36.41;100228.86;;;;-54
2020/04/17 14:25:27;;;;;;;10.44;5.96;;;;;;;19.98;36.43;100223.09;;;;-54
2020/04/17 14:28:28;;;;;;;9.98;5.85;;;;;;;19.96;36.44;100219.80;;;;-54
2020/04/17 14:31:27;;;;;;;11.80;6.37;;;;;;;19.96;36.41;100218.45;;;;-53
2020/04/17 14:34:27;;;;;;;10.40;6.05;;;;;;;19.96;36.48;100221.20;;;;-55
2020/04/17 14:37:27;;;;;;;10.35;6.04;;;;;;;19.99;37.30;100217.06;;;;-49
2020/04/17 14:40:27;;;;;;;9.48;6.03;;;;;;;20.01;37.65;100216.30;;;;-56
2020/04/17 14:43:27;;;;;;;9.10;6.31;;;;;;;20.03;38.09;100218.66;;;;-57
2020/04/17 14:46:28;;;;;;;9.43;5.85;;;;;;;20.05;37.90;100222.16;;;;-57
2020/04/17 14:49:28;;;;;;;9.49;5.75;;;;;;;20.06;37.55;100220.25;;;;-54
2020/04/17 14:52:27;;;;;;;9.51;5.95;;;;;;;20.07;37.22;100215.02;;;;-53
2020/04/17 14:55:27;;;;;;;13.57;6.31;;;;;;;20.06;37.09;100213.31;;;;-54
2020/04/17 14:58:27;;;;;;;9.08;5.87;;;;;;;20.06;37.05;100207.61;;;;-53
2020/04/17 15:01:27;;;;;;;12.48;6.13;;;;;;;20.07;36.97;100209.22;;;;-53
2020/04/17 15:04:27;;;;;;;10.54;5.94;;;;;;;20.06;36.88;100205.20;;;;-54
2020/04/17 15:07:27;;;;;;;11.24;6.03;;;;;;;20.06;37.21;100201.13;;;;-51
2020/04/17 15:10:27;;;;;;;13.18;6.11;;;;;;;20.08;37.46;100203.56;;;;-55
2020/04/17 15:13:28;;;;;;;10.71;6.25;;;;;;;20.08;37.60;100203.73;;;;-50
2020/04/17 15:16:28;;;;;;;11.09;6.03;;;;;;;20.10;37.50;100202.06;;;;-51
2020/04/17 15:19:27;;;;;;;11.54;5.83;;;;;;;20.11;37.72;100193.55;;;;-56
2020/04/17 15:22:27;;;;;;;14.06;5.76;;;;;;;20.13;38.07;100189.27;;;;-59
2020/04/17 15:25:28;;;;;;;9.21;5.85;;;;;;;20.15;37.94;100184.64;;;;-57
2020/04/17 15:28:27;;;;;;;11.11;6.34;;;;;;;20.17;37.74;100177.64;;;;-58
2020/04/17 15:31:27;;;;;;;12.62;5.75;;;;;;;20.17;37.94;100179.36;;;;-52
2020/04/17 15:34:28;;;;;;;19.00;6.20;;;;;;;20.20;37.89;100178.19;;;;-59
2020/04/17 15:37:27;;;;;;;10.34;5.78;;;;;;;20.22;37.82;100179.61;;;;-58
2020/04/17 15:40:27;;;;;;;16.14;6.11;;;;;;;20.23;37.57;100185.24;;;;-58
2020/04/17 15:43:27;;;;;;;10.29;5.51;;;;;;;20.23;37.41;100184.50;;;;-59
2020/04/17 15:46:27;;;;;;;10.65;5.48;;;;;;;20.24;37.37;100186.69;;;;-58
2020/04/17 15:49:27;;;;;;;9.19;5.55;;;;;;;20.24;37.33;100189.37;;;;-58
2020/04/17 15:52:27;;;;;;;14.39;5.83;;;;;;;20.25;37.40;100185.59;;;;-57
2020/04/17 15:55:28;;;;;;;8.80;5.46;;;;;;;20.25;37.24;100180.22;;;;-57
2020/04/17 15:58:27;;;;;;;8.85;5.53;;;;;;;20.26;37.18;100182.77;;;;-58
2020/04/17 16:01:27;;;;;;;7.28;5.22;;;;;;;20.27;37.31;100180.97;;;;-59
2020/04/17 16:04:27;;;;;;;11.29;5.49;;;;;;;20.27;37.24;100178.95;;;;-57
2020/04/17 16:07:28;;;;;;;8.93;5.31;;;;;;;20.27;37.12;100178.28;;;;-59
2020/04/17 16:10:28;;;;;;;9.67;5.21;;;;;;;20.28;37.05;100181.50;;;;-57
2020/04/17 16:13:27;;;;;;;9.61;5.36;;;;;;;20.28;37.12;100176.91;;;;-57
2020/04/17 16:16:27;;;;;;;8.67;5.34;;;;;;;20.28;37.12;100175.57;;;;-58
2020/04/17 16:19:27;;;;;;;9.97;5.49;;;;;;;20.29;37.18;100173.13;;;;-59
2020/04/17 16:22:27;;;;;;;7.53;4.95;;;;;;;20.30;37.24;100174.67;;;;-58
2020/04/17 16:25:27;;;;;;;9.20;5.21;;;;;;;20.30;37.09;100175.04;;;;-59
2020/04/17 16:28:27;;;;;;;8.01;4.95;;;;;;;20.30;37.08;100172.99;;;;-59
2020/04/17 16:31:28;;;;;;;8.23;5.07;;;;;;;20.30;37.07;100171.02;;;;-57
2020/04/17 16:34:27;;;;;;;6.89;5.08;;;;;;;20.31;37.18;100173.46;;;;-58
2020/04/17 16:37:27;;;;;;;7.30;5.16;;;;;;;20.31;37.11;100176.31;;;;-56
2020/04/17 16:40:27;;;;;;;8.47;4.93;;;;;;;20.32;37.17;100180.88;;;;-56